createdAt,value
2022-10-31T00:02:10.128Z,24.13
2022-10-31T00:07:14.830Z,23.38
2022-10-31T00:12:18.259Z,24.40
2022-10-31T00:17:21.621Z,20.35
2022-10-31T00:22:26.947Z,23.75
2022-10-31T00:27:30.240Z,23.95
2022-10-31T00:32:33.645Z,29.88
2022-10-31T00:37:38.520Z,25.90
2022-10-31T00:42:42.646Z,22.23
2022-10-31T00:47:46.008Z,20.88
2022-10-31T00:52:50.715Z,20.45
2022-10-31T00:57:54.049Z,22.00
2022-10-31T01:02:58.102Z,21.63
2022-10-31T01:08:03.001Z,23.45
2022-10-31T01:13:06.333Z,24.40
2022-10-31T01:18:09.616Z,22.65
2022-10-31T01:23:14.235Z,21.55
2022-10-31T01:28:17.632Z,17.85
2022-10-31T01:33:21.284Z,24.98
2022-10-31T01:38:26.187Z,19.23
2022-10-31T01:43:44.909Z,23.25
2022-10-31T01:48:49.705Z,23.23
2022-10-31T01:53:56.659Z,19.67
2022-10-31T01:59:02.806Z,23.55
2022-10-31T02:04:07.318Z,19.20
2022-10-31T02:09:14.701Z,19.05
2022-10-31T02:14:18.112Z,22.50
2022-10-31T02:19:28.416Z,19.08
2022-10-31T02:24:48.215Z,19.25
2022-10-31T02:30:14.326Z,19.58
2022-10-31T02:35:30.274Z,17.30
2022-10-31T02:40:37.940Z,26.73
2022-10-31T02:45:46.110Z,20.33
2022-10-31T02:50:56.199Z,22.08
2022-10-31T02:56:03.440Z,22.52
2022-10-31T03:01:36.960Z,25.55
2022-10-31T03:06:47.769Z,20.47
2022-10-31T03:11:59.274Z,22.67
2022-10-31T03:17:08.070Z,21.23
2022-10-31T03:22:19.619Z,18.52
2022-10-31T03:27:26.555Z,20.48
2022-10-31T03:32:34.565Z,22.05
2022-10-31T03:37:41.197Z,24.55
2022-10-31T03:42:50.386Z,22.10
2022-10-31T03:47:55.639Z,17.30
2022-10-31T03:53:06.345Z,19.70
2022-10-31T03:58:14.338Z,21.38
2022-10-31T04:03:22.582Z,23.92
2022-10-31T04:08:31.777Z,20.02
2022-10-31T04:13:39.405Z,24.02
2022-10-31T04:18:43.264Z,20.75
2022-10-31T04:23:47.980Z,22.17
2022-10-31T04:28:51.256Z,22.35
2022-10-31T04:33:54.942Z,19.85
2022-10-31T04:38:59.540Z,20.85
2022-10-31T04:44:02.902Z,21.05
2022-10-31T04:49:06.216Z,23.15
2022-10-31T04:54:11.159Z,17.08
2022-10-31T04:59:14.471Z,16.58
2022-10-31T05:04:17.784Z,21.30
2022-10-31T05:09:22.773Z,24.90
2022-10-31T05:14:26.068Z,24.92
2022-10-31T05:19:29.379Z,21.75
2022-10-31T05:24:34.297Z,25.35
2022-10-31T05:29:37.624Z,17.85
2022-10-31T05:34:40.921Z,15.55
2022-10-31T05:39:45.797Z,19.63
2022-10-31T05:44:49.113Z,21.17
2022-10-31T05:49:52.694Z,20.95
2022-10-31T05:54:57.353Z,20.55
2022-10-31T06:00:00.961Z,19.48
2022-10-31T06:05:05.162Z,18.58
2022-10-31T06:10:11.278Z,19.13
2022-10-31T06:15:16.134Z,17.70
2022-10-31T06:20:22.588Z,20.70
2022-10-31T06:25:27.420Z,17.35
2022-10-31T06:30:31.138Z,18.70
2022-10-31T06:35:34.639Z,20.77
2022-10-31T06:40:39.306Z,19.10
2022-10-31T06:45:42.844Z,19.05
2022-10-31T06:50:46.671Z,18.15
2022-10-31T06:55:51.438Z,19.38
2022-10-31T07:00:54.809Z,17.80
2022-10-31T07:05:58.916Z,19.23
2022-10-31T07:11:04.656Z,15.82
2022-10-31T07:16:08.752Z,17.10
2022-10-31T07:21:12.082Z,19.05
2022-10-31T07:26:16.808Z,18.40
2022-10-31T07:31:20.432Z,22.52
2022-10-31T07:36:23.825Z,17.25
2022-10-31T07:41:28.562Z,30.83
2022-10-31T07:46:32.273Z,21.27
2022-10-31T07:51:35.988Z,15.88
2022-10-31T07:56:40.779Z,16.17
2022-10-31T08:01:44.510Z,15.07
2022-10-31T08:06:49.385Z,15.98
2022-10-31T08:11:55.588Z,16.38
2022-10-31T08:16:58.874Z,16.88
2022-10-31T08:22:02.268Z,15.10
2022-10-31T08:27:07.046Z,14.63
2022-10-31T08:32:10.391Z,10.40
2022-10-31T08:37:13.702Z,12.52
2022-10-31T08:42:18.472Z,17.23
2022-10-31T08:47:23.146Z,12.60
2022-10-31T08:52:51.134Z,14.93
2022-10-31T08:57:57.302Z,14.80
2022-10-31T09:03:02.123Z,12.88
2022-10-31T09:08:09.440Z,13.57
2022-10-31T09:13:18.662Z,19.85
2022-10-31T09:18:24.246Z,10.93
2022-10-31T09:23:27.874Z,10.45
2022-10-31T09:28:33.457Z,17.02
2022-10-31T09:33:36.825Z,15.23
2022-10-31T09:38:40.425Z,9.00
2022-10-31T09:43:55.144Z,10.20
2022-10-31T09:49:15.347Z,13.73
2022-10-31T09:54:23.869Z,15.07
2022-10-31T09:59:32.765Z,13.95
2022-10-31T10:04:41.693Z,11.52
2022-10-31T10:09:45.156Z,12.90
2022-10-31T10:15:02.749Z,20.67
2022-10-31T10:20:20.797Z,13.25
2022-10-31T10:25:25.749Z,12.57
2022-10-31T10:30:36.264Z,9.23
2022-10-31T10:35:45.107Z,20.30
2022-10-31T10:40:49.448Z,11.93
2022-10-31T10:46:41.009Z,11.35
2022-10-31T10:57:29.217Z,13.05
2022-10-31T11:02:35.157Z,10.80
2022-10-31T11:07:42.145Z,12.52
2022-10-31T11:12:48.121Z,12.98
2022-10-31T11:17:56.401Z,12.73
2022-10-31T11:23:06.165Z,11.45
2022-10-31T11:28:11.806Z,13.13
2022-10-31T11:33:21.921Z,11.15
2022-10-31T11:38:31.870Z,11.98
2022-10-31T11:43:35.494Z,9.60
2022-10-31T11:48:40.611Z,11.95
2022-10-31T11:53:56.810Z,13.38
2022-10-31T11:59:06.600Z,11.18
2022-10-31T12:04:13.491Z,15.45
2022-10-31T12:09:23.258Z,10.23
2022-10-31T12:14:35.823Z,11.40
2022-10-31T12:19:51.244Z,11.82
2022-10-31T12:25:15.955Z,12.05
2022-10-31T12:30:22.469Z,12.07
2022-10-31T12:40:58.364Z,11.40
2022-10-31T12:46:03.196Z,12.05
2022-10-31T12:51:16.919Z,14.55
2022-10-31T12:56:42.770Z,8.15
2022-10-31T13:01:51.902Z,8.93
2022-10-31T13:07:02.053Z,13.90
2022-10-31T13:12:11.044Z,17.00
2022-10-31T13:17:23.026Z,12.50
2022-10-31T13:22:32.754Z,9.80
2022-10-31T13:27:46.089Z,11.27
2022-10-31T13:32:55.376Z,11.10
2022-10-31T13:38:13.700Z,12.98
2022-10-31T13:43:25.868Z,14.50
2022-10-31T13:48:40.062Z,16.13
2022-10-31T13:54:00.023Z,13.43
2022-10-31T13:59:16.013Z,14.80
2022-10-31T14:04:25.266Z,10.13
2022-10-31T14:09:34.733Z,9.57
2022-10-31T14:14:48.611Z,13.60
2022-10-31T14:20:27.437Z,10.43
2022-10-31T14:25:34.677Z,12.43
2022-10-31T14:30:38.615Z,12.55
2022-10-31T14:35:53.877Z,8.88
2022-10-31T14:41:18.860Z,11.75
2022-10-31T14:46:33.655Z,15.88
2022-10-31T14:51:42.666Z,13.25
2022-10-31T14:56:52.086Z,9.45
2022-10-31T15:01:59.900Z,8.68
2022-10-31T15:07:07.160Z,12.75
2022-10-31T15:12:27.438Z,14.40
2022-10-31T15:17:30.779Z,10.68
2022-10-31T15:22:34.442Z,11.85
2022-10-31T15:27:42.786Z,10.93
2022-10-31T15:32:55.304Z,8.40
2022-10-31T15:38:03.075Z,16.10
2022-10-31T15:43:08.719Z,11.57
2022-10-31T15:48:19.159Z,15.30
2022-10-31T15:53:27.536Z,13.05
2022-10-31T15:58:34.685Z,12.38
2022-10-31T16:03:37.981Z,8.60
2022-10-31T16:08:50.317Z,12.85
2022-10-31T16:14:01.245Z,22.92
2022-10-31T16:19:07.374Z,12.65
2022-10-31T16:24:20.186Z,11.00
2022-10-31T16:29:38.350Z,19.65
2022-10-31T16:34:41.936Z,15.38
2022-10-31T16:39:45.265Z,17.85
2022-10-31T16:44:50.862Z,10.40
2022-10-31T16:49:54.274Z,14.05
2022-10-31T16:54:57.655Z,15.90
2022-10-31T17:00:02.358Z,13.48
2022-10-31T17:05:06.236Z,21.75
2022-10-31T17:10:11.513Z,12.13
2022-10-31T17:15:28.828Z,16.42
2022-10-31T17:20:33.009Z,15.40
2022-10-31T17:25:36.810Z,12.82
2022-10-31T17:30:42.059Z,32.03
2022-10-31T17:35:46.218Z,30.00
2022-10-31T17:40:49.622Z,33.95
2022-10-31T17:45:54.374Z,35.95
2022-10-31T17:51:01.511Z,25.20
2022-10-31T17:56:07.035Z,24.40
2022-10-31T18:01:13.921Z,23.77
2022-10-31T18:06:18.197Z,20.30
2022-10-31T18:11:22.870Z,22.90
2022-10-31T18:16:28.393Z,27.52
2022-10-31T18:21:32.341Z,28.23
2022-10-31T18:26:35.998Z,27.63
2022-10-31T18:31:40.740Z,30.13
2022-10-31T18:36:44.072Z,30.95
2022-10-31T18:41:47.455Z,41.15
2022-10-31T18:46:52.336Z,39.33
2022-10-31T18:51:55.866Z,34.55
2022-10-31T18:56:59.205Z,42.03
2022-10-31T19:02:03.997Z,39.47
2022-10-31T19:07:07.409Z,41.80
2022-10-31T19:12:10.733Z,40.95
2022-10-31T19:17:15.759Z,39.47
2022-10-31T19:22:19.068Z,45.63
2022-10-31T19:27:22.686Z,51.08
2022-10-31T19:32:27.484Z,46.78
2022-10-31T19:37:30.785Z,36.28
2022-10-31T19:42:34.166Z,42.72
2022-10-31T19:47:39.233Z,50.80
2022-10-31T19:52:43.146Z,57.47
2022-10-31T19:58:01.248Z,55.30
2022-10-31T20:03:07.263Z,60.13
2022-10-31T20:08:15.416Z,65.28
2022-10-31T20:13:18.689Z,71.20
2022-10-31T20:23:31.778Z,54.35
2022-10-31T20:28:39.961Z,51.50
2022-10-31T20:33:48.333Z,56.42
2022-10-31T20:38:52.460Z,57.95
2022-10-31T20:43:55.793Z,53.65
2022-10-31T20:49:00.443Z,50.42
2022-10-31T20:54:03.768Z,58.60
2022-10-31T20:59:08.128Z,49.20
2022-10-31T21:04:13.099Z,40.08
2022-10-31T21:09:17.702Z,45.30
2022-10-31T21:14:21.438Z,47.25
2022-10-31T21:19:26.083Z,49.25
2022-10-31T21:24:29.645Z,45.33
2022-10-31T21:29:33.352Z,49.40
2022-10-31T21:34:38.273Z,55.72
2022-10-31T21:39:42.494Z,49.30
2022-10-31T21:44:47.979Z,58.63
2022-10-31T21:49:52.665Z,46.63
2022-10-31T21:54:56.235Z,50.80
2022-10-31T21:59:59.576Z,49.22
2022-10-31T22:05:04.651Z,47.10
2022-10-31T22:10:09.033Z,52.67
2022-10-31T22:15:12.444Z,45.28
2022-10-31T22:20:17.564Z,40.42
2022-10-31T22:25:20.888Z,53.20
2022-10-31T22:30:24.414Z,52.92
2022-10-31T22:35:29.096Z,55.08
2022-10-31T22:40:34.279Z,48.05
2022-10-31T22:45:37.895Z,44.35
2022-10-31T22:50:42.608Z,49.88
2022-10-31T22:55:46.183Z,45.88
2022-10-31T23:00:49.709Z,44.08
2022-10-31T23:05:58.223Z,50.03
2022-10-31T23:11:01.527Z,54.03
2022-10-31T23:16:06.847Z,47.20
2022-10-31T23:21:31.480Z,42.25
2022-10-31T23:26:52.166Z,45.20
2022-10-31T23:31:55.598Z,39.47
2022-10-31T23:37:00.301Z,42.78
2022-10-31T23:42:03.954Z,39.85
2022-10-31T23:47:07.539Z,38.35
2022-10-31T23:52:13.003Z,32.75
2022-10-31T23:57:17.351Z,38.40
